sensor_id;sensor_type;location;lat;lon;timestamp;P1;durP1;ratioP1;P2;durP2;ratioP2
27127;SDS011;14660;49.008;8.390;2022-08-25T00:04:33;3.13;;;2.40;;
27127;SDS011;14660;49.008;8.390;2022-08-25T00:07:01;3.63;;;2.33;;
27127;SDS011;14660;49.008;8.390;2022-08-25T00:09:30;5.25;;;2.63;;
27127;SDS011;14660;49.008;8.390;2022-08-25T00:11:58;3.05;;;2.30;;
27127;SDS011;14660;49.008;8.390;2022-08-25T00:14:27;3.92;;;2.20;;
27127;SDS011;14660;49.008;8.390;2022-08-25T00:16:56;3.53;;;2.15;;
27127;SDS011;14660;49.008;8.390;2022-08-25T00:19:25;6.55;;;2.72;;
27127;SDS011;14660;49.008;8.390;2022-08-25T00:21:54;4.35;;;2.75;;
27127;SDS011;14660;49.008;8.390;2022-08-25T00:24:22;3.58;;;2.13;;
27127;SDS011;14660;49.008;8.390;2022-08-25T00:26:51;3.20;;;2.65;;
27127;SDS011;14660;49.008;8.390;2022-08-25T00:29:20;4.50;;;2.38;;
27127;SDS011;14660;49.008;8.390;2022-08-25T00:31:48;4.93;;;2.20;;
27127;SDS011;14660;49.008;8.390;2022-08-25T00:34:17;2.92;;;2.25;;
27127;SDS011;14660;49.008;8.390;2022-08-25T00:36:47;3.93;;;2.77;;
27127;SDS011;14660;49.008;8.390;2022-08-25T00:39:16;3.08;;;2.45;;
27127;SDS011;14660;49.008;8.390;2022-08-25T00:41:47;4.75;;;2.42;;
27127;SDS011;14660;49.008;8.390;2022-08-25T00:44:15;3.00;;;2.30;;
27127;SDS011;14660;49.008;8.390;2022-08-25T00:46:47;5.00;;;2.38;;
27127;SDS011;14660;49.008;8.390;2022-08-25T00:49:18;4.37;;;2.67;;
27127;SDS011;14660;49.008;8.390;2022-08-25T00:54:38;3.85;;;2.90;;
27127;SDS011;14660;49.008;8.390;2022-08-25T00:57:29;3.45;;;2.58;;
27127;SDS011;14660;49.008;8.390;2022-08-25T01:00:15;4.50;;;2.80;;
27127;SDS011;14660;49.008;8.390;2022-08-25T01:02:42;5.05;;;2.47;;
27127;SDS011;14660;49.008;8.390;2022-08-25T01:05:09;3.50;;;2.40;;
27127;SDS011;14660;49.008;8.390;2022-08-25T01:07:36;3.92;;;2.30;;
27127;SDS011;14660;49.008;8.390;2022-08-25T01:10:05;3.92;;;2.50;;
27127;SDS011;14660;49.008;8.390;2022-08-25T01:12:33;4.20;;;2.67;;
27127;SDS011;14660;49.008;8.390;2022-08-25T01:15:03;4.93;;;3.00;;
27127;SDS011;14660;49.008;8.390;2022-08-25T01:17:34;2.85;;;2.35;;
27127;SDS011;14660;49.008;8.390;2022-08-25T01:20:29;2.65;;;2.40;;
27127;SDS011;14660;49.008;8.390;2022-08-25T01:22:58;4.05;;;2.70;;
27127;SDS011;14660;49.008;8.390;2022-08-25T01:28:28;4.38;;;2.88;;
27127;SDS011;14660;49.008;8.390;2022-08-25T01:30:56;4.80;;;2.88;;
27127;SDS011;14660;49.008;8.390;2022-08-25T01:33:22;3.85;;;2.83;;
27127;SDS011;14660;49.008;8.390;2022-08-25T01:35:49;4.25;;;2.60;;
27127;SDS011;14660;49.008;8.390;2022-08-25T01:38:16;3.67;;;2.65;;
27127;SDS011;14660;49.008;8.390;2022-08-25T01:40:43;4.55;;;2.50;;
27127;SDS011;14660;49.008;8.390;2022-08-25T01:46:02;3.35;;;2.90;;
27127;SDS011;14660;49.008;8.390;2022-08-25T01:48:29;3.15;;;2.35;;
27127;SDS011;14660;49.008;8.390;2022-08-25T01:50:58;4.30;;;3.22;;
27127;SDS011;14660;49.008;8.390;2022-08-25T01:53:28;3.42;;;2.88;;
27127;SDS011;14660;49.008;8.390;2022-08-25T01:55:57;4.75;;;2.70;;
27127;SDS011;14660;49.008;8.390;2022-08-25T01:58:31;3.85;;;2.67;;
27127;SDS011;14660;49.008;8.390;2022-08-25T02:01:04;2.97;;;2.45;;
27127;SDS011;14660;49.008;8.390;2022-08-25T02:03:35;4.50;;;2.80;;
27127;SDS011;14660;49.008;8.390;2022-08-25T02:06:07;4.35;;;2.92;;
27127;SDS011;14660;49.008;8.390;2022-08-25T02:08:35;5.18;;;2.17;;
27127;SDS011;14660;49.008;8.390;2022-08-25T02:11:03;4.20;;;2.75;;
27127;SDS011;14660;49.008;8.390;2022-08-25T02:13:30;3.85;;;2.92;;
27127;SDS011;14660;49.008;8.390;2022-08-25T02:15:57;9.65;;;3.25;;
27127;SDS011;14660;49.008;8.390;2022-08-25T02:18:25;5.28;;;3.22;;
27127;SDS011;14660;49.008;8.390;2022-08-25T02:20:52;3.95;;;2.70;;
27127;SDS011;14660;49.008;8.390;2022-08-25T02:23:19;4.57;;;2.30;;
27127;SDS011;14660;49.008;8.390;2022-08-25T02:25:46;3.75;;;2.60;;
27127;SDS011;14660;49.008;8.390;2022-08-25T02:28:13;5.70;;;2.92;;
27127;SDS011;14660;49.008;8.390;2022-08-25T02:30:41;3.40;;;2.72;;
27127;SDS011;14660;49.008;8.390;2022-08-25T02:33:08;5.15;;;3.03;;
27127;SDS011;14660;49.008;8.390;2022-08-25T02:35:35;3.38;;;2.70;;
27127;SDS011;14660;49.008;8.390;2022-08-25T02:38:03;3.63;;;2.40;;
27127;SDS011;14660;49.008;8.390;2022-08-25T02:40:30;2.67;;;2.42;;
27127;SDS011;14660;49.008;8.390;2022-08-25T02:43:00;7.97;;;3.88;;
27127;SDS011;14660;49.008;8.390;2022-08-25T02:45:28;3.30;;;2.15;;
27127;SDS011;14660;49.008;8.390;2022-08-25T02:47:55;4.97;;;2.63;;
27127;SDS011;14660;49.008;8.390;2022-08-25T02:50:22;3.97;;;2.45;;
27127;SDS011;14660;49.008;8.390;2022-08-25T02:52:49;4.30;;;3.58;;
27127;SDS011;14660;49.008;8.390;2022-08-25T02:55:17;3.33;;;2.85;;
27127;SDS011;14660;49.008;8.390;2022-08-25T02:57:44;3.03;;;2.72;;
27127;SDS011;14660;49.008;8.390;2022-08-25T03:00:12;5.20;;;2.60;;
27127;SDS011;14660;49.008;8.390;2022-08-25T03:02:39;3.60;;;2.60;;
27127;SDS011;14660;49.008;8.390;2022-08-25T03:05:06;3.05;;;2.67;;
27127;SDS011;14660;49.008;8.390;2022-08-25T03:07:35;5.60;;;3.17;;
27127;SDS011;14660;49.008;8.390;2022-08-25T03:10:08;4.65;;;2.83;;
27127;SDS011;14660;49.008;8.390;2022-08-25T03:12:38;3.92;;;3.05;;
27127;SDS011;14660;49.008;8.390;2022-08-25T03:15:07;5.90;;;3.22;;
27127;SDS011;14660;49.008;8.390;2022-08-25T03:17:35;4.03;;;2.85;;
27127;SDS011;14660;49.008;8.390;2022-08-25T03:20:03;3.63;;;2.90;;
27127;SDS011;14660;49.008;8.390;2022-08-25T03:22:31;3.60;;;2.45;;
27127;SDS011;14660;49.008;8.390;2022-08-25T03:24:57;3.85;;;3.00;;
27127;SDS011;14660;49.008;8.390;2022-08-25T03:27:44;5.47;;;2.92;;
27127;SDS011;14660;49.008;8.390;2022-08-25T03:30:15;3.17;;;2.90;;
27127;SDS011;14660;49.008;8.390;2022-08-25T03:32:42;4.05;;;3.28;;
27127;SDS011;14660;49.008;8.390;2022-08-25T03:35:09;3.17;;;2.80;;
27127;SDS011;14660;49.008;8.390;2022-08-25T03:37:36;3.90;;;3.30;;
27127;SDS011;14660;49.008;8.390;2022-08-25T03:40:04;5.40;;;2.88;;
27127;SDS011;14660;49.008;8.390;2022-08-25T03:42:32;5.97;;;3.20;;
27127;SDS011;14660;49.008;8.390;2022-08-25T03:45:01;4.10;;;2.97;;
27127;SDS011;14660;49.008;8.390;2022-08-25T03:47:29;4.05;;;3.38;;
27127;SDS011;14660;49.008;8.390;2022-08-25T03:49:56;4.60;;;2.97;;
27127;SDS011;14660;49.008;8.390;2022-08-25T03:52:23;4.22;;;3.35;;
27127;SDS011;14660;49.008;8.390;2022-08-25T03:54:50;6.30;;;3.22;;
27127;SDS011;14660;49.008;8.390;2022-08-25T03:57:17;3.70;;;3.22;;
27127;SDS011;14660;49.008;8.390;2022-08-25T03:59:45;4.18;;;3.47;;
27127;SDS011;14660;49.008;8.390;2022-08-25T04:02:12;5.18;;;3.25;;
27127;SDS011;14660;49.008;8.390;2022-08-25T04:04:40;4.03;;;3.10;;
27127;SDS011;14660;49.008;8.390;2022-08-25T04:07:07;4.10;;;3.17;;
27127;SDS011;14660;49.008;8.390;2022-08-25T04:09:34;4.93;;;4.28;;
27127;SDS011;14660;49.008;8.390;2022-08-25T04:12:00;4.03;;;3.58;;
27127;SDS011;14660;49.008;8.390;2022-08-25T04:14:28;6.03;;;3.97;;
27127;SDS011;14660;49.008;8.390;2022-08-25T04:16:55;6.10;;;3.65;;
27127;SDS011;14660;49.008;8.390;2022-08-25T04:19:22;4.78;;;3.80;;
27127;SDS011;14660;49.008;8.390;2022-08-25T04:21:49;5.78;;;3.42;;
27127;SDS011;14660;49.008;8.390;2022-08-25T04:24:17;5.28;;;3.60;;
27127;SDS011;14660;49.008;8.390;2022-08-25T04:26:45;4.85;;;3.95;;
27127;SDS011;14660;49.008;8.390;2022-08-25T04:29:17;4.65;;;3.33;;
27127;SDS011;14660;49.008;8.390;2022-08-25T04:31:46;5.50;;;3.83;;
27127;SDS011;14660;49.008;8.390;2022-08-25T04:34:16;6.47;;;4.05;;
27127;SDS011;14660;49.008;8.390;2022-08-25T04:36:43;5.05;;;4.00;;
27127;SDS011;14660;49.008;8.390;2022-08-25T04:39:11;5.78;;;4.40;;
27127;SDS011;14660;49.008;8.390;2022-08-25T04:41:38;6.97;;;3.70;;
27127;SDS011;14660;49.008;8.390;2022-08-25T04:44:05;5.88;;;4.53;;
27127;SDS011;14660;49.008;8.390;2022-08-25T04:46:33;6.00;;;3.90;;
27127;SDS011;14660;49.008;8.390;2022-08-25T04:49:00;6.38;;;4.47;;
27127;SDS011;14660;49.008;8.390;2022-08-25T04:51:29;5.22;;;3.95;;
27127;SDS011;14660;49.008;8.390;2022-08-25T04:53:59;6.68;;;4.07;;
27127;SDS011;14660;49.008;8.390;2022-08-25T04:56:28;4.45;;;3.70;;
27127;SDS011;14660;49.008;8.390;2022-08-25T04:58:55;5.40;;;4.03;;
27127;SDS011;14660;49.008;8.390;2022-08-25T05:01:22;6.35;;;3.80;;
27127;SDS011;14660;49.008;8.390;2022-08-25T05:03:54;4.40;;;4.00;;
27127;SDS011;14660;49.008;8.390;2022-08-25T05:06:23;6.17;;;5.27;;
27127;SDS011;14660;49.008;8.390;2022-08-25T05:08:50;5.47;;;4.10;;
27127;SDS011;14660;49.008;8.390;2022-08-25T05:11:17;7.47;;;4.32;;
27127;SDS011;14660;49.008;8.390;2022-08-25T05:13:46;6.13;;;4.65;;
27127;SDS011;14660;49.008;8.390;2022-08-25T05:16:14;7.13;;;4.13;;
27127;SDS011;14660;49.008;8.390;2022-08-25T05:18:42;6.95;;;4.15;;
27127;SDS011;14660;49.008;8.390;2022-08-25T05:21:10;5.70;;;3.92;;
27127;SDS011;14660;49.008;8.390;2022-08-25T05:23:39;5.10;;;4.05;;
27127;SDS011;14660;49.008;8.390;2022-08-25T05:26:10;5.43;;;4.30;;
27127;SDS011;14660;49.008;8.390;2022-08-25T05:28:39;8.10;;;4.47;;
27127;SDS011;14660;49.008;8.390;2022-08-25T05:31:08;4.55;;;3.45;;
27127;SDS011;14660;49.008;8.390;2022-08-25T05:33:37;6.82;;;4.32;;
27127;SDS011;14660;49.008;8.390;2022-08-25T05:36:05;5.35;;;4.25;;
27127;SDS011;14660;49.008;8.390;2022-08-25T05:38:35;4.50;;;3.55;;
27127;SDS011;14660;49.008;8.390;2022-08-25T05:41:04;5.85;;;4.35;;
27127;SDS011;14660;49.008;8.390;2022-08-25T05:43:36;5.45;;;3.97;;
27127;SDS011;14660;49.008;8.390;2022-08-25T05:46:03;5.80;;;3.78;;
27127;SDS011;14660;49.008;8.390;2022-08-25T05:48:30;5.05;;;4.05;;
27127;SDS011;14660;49.008;8.390;2022-08-25T05:50:58;5.15;;;4.45;;
27127;SDS011;14660;49.008;8.390;2022-08-25T05:53:27;5.97;;;4.30;;
27127;SDS011;14660;49.008;8.390;2022-08-25T05:55:56;6.80;;;4.32;;
27127;SDS011;14660;49.008;8.390;2022-08-25T05:58:24;6.07;;;4.22;;
27127;SDS011;14660;49.008;8.390;2022-08-25T06:00:53;6.60;;;4.35;;
27127;SDS011;14660;49.008;8.390;2022-08-25T06:03:21;7.05;;;4.72;;
27127;SDS011;14660;49.008;8.390;2022-08-25T06:05:48;5.45;;;4.35;;
27127;SDS011;14660;49.008;8.390;2022-08-25T06:08:15;5.63;;;4.63;;
27127;SDS011;14660;49.008;8.390;2022-08-25T06:10:42;5.70;;;4.25;;
27127;SDS011;14660;49.008;8.390;2022-08-25T06:13:09;9.95;;;5.90;;
27127;SDS011;14660;49.008;8.390;2022-08-25T06:15:36;5.85;;;4.43;;
27127;SDS011;14660;49.008;8.390;2022-08-25T06:18:02;6.20;;;3.97;;
27127;SDS011;14660;49.008;8.390;2022-08-25T06:20:30;5.13;;;3.75;;
27127;SDS011;14660;49.008;8.390;2022-08-25T06:22:57;6.68;;;4.13;;
27127;SDS011;14660;49.008;8.390;2022-08-25T06:25:25;8.95;;;4.88;;
27127;SDS011;14660;49.008;8.390;2022-08-25T06:27:53;6.50;;;5.00;;
27127;SDS011;14660;49.008;8.390;2022-08-25T06:30:21;6.75;;;4.30;;
27127;SDS011;14660;49.008;8.390;2022-08-25T06:32:49;5.10;;;4.18;;
27127;SDS011;14660;49.008;8.390;2022-08-25T06:35:17;5.90;;;4.78;;
27127;SDS011;14660;49.008;8.390;2022-08-25T06:37:44;6.57;;;4.65;;
27127;SDS011;14660;49.008;8.390;2022-08-25T06:40:12;5.10;;;4.53;;
27127;SDS011;14660;49.008;8.390;2022-08-25T06:42:40;6.75;;;4.50;;
27127;SDS011;14660;49.008;8.390;2022-08-25T06:45:06;6.05;;;4.97;;
27127;SDS011;14660;49.008;8.390;2022-08-25T06:47:32;7.72;;;5.47;;
27127;SDS011;14660;49.008;8.390;2022-08-25T06:50:01;6.65;;;4.57;;
27127;SDS011;14660;49.008;8.390;2022-08-25T06:52:29;5.85;;;4.60;;
27127;SDS011;14660;49.008;8.390;2022-08-25T06:54:55;6.32;;;4.90;;
27127;SDS011;14660;49.008;8.390;2022-08-25T06:57:22;6.43;;;4.75;;
27127;SDS011;14660;49.008;8.390;2022-08-25T06:59:48;7.10;;;5.43;;
27127;SDS011;14660;49.008;8.390;2022-08-25T07:02:16;6.30;;;5.55;;
27127;SDS011;14660;49.008;8.390;2022-08-25T07:04:43;7.68;;;5.10;;
27127;SDS011;14660;49.008;8.390;2022-08-25T07:07:10;5.95;;;5.35;;
27127;SDS011;14660;49.008;8.390;2022-08-25T07:09:37;9.20;;;5.10;;
27127;SDS011;14660;49.008;8.390;2022-08-25T07:12:04;11.20;;;5.50;;
27127;SDS011;14660;49.008;8.390;2022-08-25T07:14:31;6.20;;;5.22;;
27127;SDS011;14660;49.008;8.390;2022-08-25T07:17:02;6.20;;;5.30;;
27127;SDS011;14660;49.008;8.390;2022-08-25T07:19:29;6.93;;;4.82;;
27127;SDS011;14660;49.008;8.390;2022-08-25T07:21:57;8.02;;;5.97;;
27127;SDS011;14660;49.008;8.390;2022-08-25T07:24:23;5.95;;;5.03;;
27127;SDS011;14660;49.008;8.390;2022-08-25T07:26:50;7.85;;;5.63;;
27127;SDS011;14660;49.008;8.390;2022-08-25T07:32:05;10.30;;;5.65;;
27127;SDS011;14660;49.008;8.390;2022-08-25T07:34:33;7.32;;;5.22;;
27127;SDS011;14660;49.008;8.390;2022-08-25T07:37:19;6.88;;;5.55;;
27127;SDS011;14660;49.008;8.390;2022-08-25T07:39:47;7.55;;;5.43;;
27127;SDS011;14660;49.008;8.390;2022-08-25T07:42:12;7.10;;;4.63;;
27127;SDS011;14660;49.008;8.390;2022-08-25T07:44:39;7.75;;;5.25;;
27127;SDS011;14660;49.008;8.390;2022-08-25T07:47:06;6.70;;;4.95;;
27127;SDS011;14660;49.008;8.390;2022-08-25T07:49:32;5.50;;;5.00;;
27127;SDS011;14660;49.008;8.390;2022-08-25T07:51:58;6.97;;;5.32;;
27127;SDS011;14660;49.008;8.390;2022-08-25T07:54:25;8.77;;;6.28;;
27127;SDS011;14660;49.008;8.390;2022-08-25T07:56:53;7.10;;;4.75;;
27127;SDS011;14660;49.008;8.390;2022-08-25T07:59:20;8.85;;;6.07;;
27127;SDS011;14660;49.008;8.390;2022-08-25T08:01:48;5.38;;;4.82;;
27127;SDS011;14660;49.008;8.390;2022-08-25T08:04:13;5.68;;;5.10;;
27127;SDS011;14660;49.008;8.390;2022-08-25T08:06:41;5.72;;;4.72;;
27127;SDS011;14660;49.008;8.390;2022-08-25T08:09:08;6.15;;;5.32;;
27127;SDS011;14660;49.008;8.390;2022-08-25T08:11:38;7.72;;;5.72;;
27127;SDS011;14660;49.008;8.390;2022-08-25T08:14:10;7.35;;;6.30;;
27127;SDS011;14660;49.008;8.390;2022-08-25T08:16:38;9.43;;;5.60;;
27127;SDS011;14660;49.008;8.390;2022-08-25T08:19:05;6.00;;;5.40;;
27127;SDS011;14660;49.008;8.390;2022-08-25T08:21:33;9.75;;;5.13;;
27127;SDS011;14660;49.008;8.390;2022-08-25T08:24:02;7.15;;;5.60;;
27127;SDS011;14660;49.008;8.390;2022-08-25T08:26:28;7.40;;;5.38;;
27127;SDS011;14660;49.008;8.390;2022-08-25T08:28:56;7.88;;;5.43;;
27127;SDS011;14660;49.008;8.390;2022-08-25T08:31:25;7.25;;;5.50;;
27127;SDS011;14660;49.008;8.390;2022-08-25T08:33:54;5.90;;;5.30;;
27127;SDS011;14660;49.008;8.390;2022-08-25T08:36:22;8.48;;;5.40;;
27127;SDS011;14660;49.008;8.390;2022-08-25T08:38:49;5.85;;;5.25;;
27127;SDS011;14660;49.008;8.390;2022-08-25T08:56:38;7.38;;;5.00;;
27127;SDS011;14660;49.008;8.390;2022-08-25T08:59:09;6.40;;;5.15;;
27127;SDS011;14660;49.008;8.390;2022-08-25T09:01:58;6.93;;;4.82;;
27127;SDS011;14660;49.008;8.390;2022-08-25T09:04:46;7.30;;;4.93;;
27127;SDS011;14660;49.008;8.390;2022-08-25T09:07:19;5.60;;;4.20;;
27127;SDS011;14660;49.008;8.390;2022-08-25T09:09:57;8.40;;;4.97;;
27127;SDS011;14660;49.008;8.390;2022-08-25T09:27:17;6.93;;;4.78;;
27127;SDS011;14660;49.008;8.390;2022-08-25T09:32:34;4.80;;;4.30;;
27127;SDS011;14660;49.008;8.390;2022-08-25T09:35:26;7.65;;;5.40;;
27127;SDS011;14660;49.008;8.390;2022-08-25T09:38:08;5.13;;;3.85;;
27127;SDS011;14660;49.008;8.390;2022-08-25T09:40:38;4.97;;;4.22;;
27127;SDS011;14660;49.008;8.390;2022-08-25T09:46:15;5.35;;;4.50;;
27127;SDS011;14660;49.008;8.390;2022-08-25T09:48:51;7.85;;;4.93;;
27127;SDS011;14660;49.008;8.390;2022-08-25T09:59:53;4.30;;;3.40;;
27127;SDS011;14660;49.008;8.390;2022-08-25T10:02:25;5.32;;;4.40;;
27127;SDS011;14660;49.008;8.390;2022-08-25T10:04:53;6.78;;;3.67;;
27127;SDS011;14660;49.008;8.390;2022-08-25T10:10:17;6.18;;;3.72;;
27127;SDS011;14660;49.008;8.390;2022-08-25T10:12:49;4.68;;;3.95;;
27127;SDS011;14660;49.008;8.390;2022-08-25T10:23:49;5.25;;;4.00;;
27127;SDS011;14660;49.008;8.390;2022-08-25T10:26:29;5.03;;;3.95;;
27127;SDS011;14660;49.008;8.390;2022-08-25T10:36:14;8.07;;;7.20;;
27127;SDS011;14660;49.008;8.390;2022-08-25T10:44:37;6.60;;;4.22;;
27127;SDS011;14660;49.008;8.390;2022-08-25T10:53:48;5.30;;;4.53;;
27127;SDS011;14660;49.008;8.390;2022-08-25T10:57:38;6.15;;;4.30;;
27127;SDS011;14660;49.008;8.390;2022-08-25T11:06:11;7.63;;;4.43;;
27127;SDS011;14660;49.008;8.390;2022-08-25T11:08:59;7.65;;;4.95;;
27127;SDS011;14660;49.008;8.390;2022-08-25T11:20:31;7.28;;;4.15;;
27127;SDS011;14660;49.008;8.390;2022-08-25T11:26:16;7.10;;;4.75;;
27127;SDS011;14660;49.008;8.390;2022-08-25T11:29:01;4.28;;;3.55;;
27127;SDS011;14660;49.008;8.390;2022-08-25T11:31:47;6.30;;;4.55;;
27127;SDS011;14660;49.008;8.390;2022-08-25T11:34:16;5.63;;;4.30;;
27127;SDS011;14660;49.008;8.390;2022-08-25T11:37:18;6.82;;;4.07;;
27127;SDS011;14660;49.008;8.390;2022-08-25T12:00:06;4.80;;;4.30;;
27127;SDS011;14660;49.008;8.390;2022-08-25T12:02:39;7.63;;;6.07;;
27127;SDS011;14660;49.008;8.390;2022-08-25T12:11:11;4.13;;;3.42;;
27127;SDS011;14660;49.008;8.390;2022-08-25T12:17:19;3.92;;;2.95;;
27127;SDS011;14660;49.008;8.390;2022-08-25T12:19:53;4.15;;;3.75;;
27127;SDS011;14660;49.008;8.390;2022-08-25T12:25:29;4.40;;;3.15;;
27127;SDS011;14660;49.008;8.390;2022-08-25T12:28:14;3.83;;;3.22;;
27127;SDS011;14660;49.008;8.390;2022-08-25T12:30:52;5.80;;;3.75;;
27127;SDS011;14660;49.008;8.390;2022-08-25T12:36:30;5.75;;;3.70;;
27127;SDS011;14660;49.008;8.390;2022-08-25T12:41:59;5.03;;;3.78;;
27127;SDS011;14660;49.008;8.390;2022-08-25T12:44:44;3.80;;;3.42;;
27127;SDS011;14660;49.008;8.390;2022-08-25T12:56:07;4.72;;;4.25;;
27127;SDS011;14660;49.008;8.390;2022-08-25T12:59:17;5.82;;;3.40;;
27127;SDS011;14660;49.008;8.390;2022-08-25T13:01:56;4.95;;;3.65;;
27127;SDS011;14660;49.008;8.390;2022-08-25T13:16:58;7.03;;;4.80;;
27127;SDS011;14660;49.008;8.390;2022-08-25T13:19:26;6.78;;;4.22;;
27127;SDS011;14660;49.008;8.390;2022-08-25T13:21:53;7.47;;;5.32;;
27127;SDS011;14660;49.008;8.390;2022-08-25T13:27:08;4.43;;;3.60;;
27127;SDS011;14660;49.008;8.390;2022-08-25T13:29:52;4.70;;;4.20;;
27127;SDS011;14660;49.008;8.390;2022-08-25T13:32:31;5.55;;;4.60;;
27127;SDS011;14660;49.008;8.390;2022-08-25T13:37:38;6.53;;;4.00;;
27127;SDS011;14660;49.008;8.390;2022-08-25T13:42:52;4.68;;;4.00;;
27127;SDS011;14660;49.008;8.390;2022-08-25T13:45:24;9.38;;;4.18;;
27127;SDS011;14660;49.008;8.390;2022-08-25T13:47:53;5.85;;;4.45;;
27127;SDS011;14660;49.008;8.390;2022-08-25T13:58:37;7.07;;;4.32;;
27127;SDS011;14660;49.008;8.390;2022-08-25T14:07:34;3.92;;;3.53;;
27127;SDS011;14660;49.008;8.390;2022-08-25T14:09:57;5.45;;;3.97;;
27127;SDS011;14660;49.008;8.390;2022-08-25T14:18:09;4.47;;;3.78;;
27127;SDS011;14660;49.008;8.390;2022-08-25T14:20:45;4.07;;;3.67;;
27127;SDS011;14660;49.008;8.390;2022-08-25T14:23:20;5.27;;;3.87;;
27127;SDS011;14660;49.008;8.390;2022-08-25T14:25:50;3.95;;;3.45;;
27127;SDS011;14660;49.008;8.390;2022-08-25T14:28:20;5.30;;;3.47;;
27127;SDS011;14660;49.008;8.390;2022-08-25T14:30:49;3.60;;;3.17;;
27127;SDS011;14660;49.008;8.390;2022-08-25T14:33:27;4.38;;;3.72;;
27127;SDS011;14660;49.008;8.390;2022-08-25T14:35:57;4.10;;;3.47;;
27127;SDS011;14660;49.008;8.390;2022-08-25T14:38:25;9.60;;;4.72;;
27127;SDS011;14660;49.008;8.390;2022-08-25T14:40:52;3.92;;;3.53;;
27127;SDS011;14660;49.008;8.390;2022-08-25T14:43:19;3.70;;;3.40;;
27127;SDS011;14660;49.008;8.390;2022-08-25T14:45:46;6.45;;;4.43;;
27127;SDS011;14660;49.008;8.390;2022-08-25T14:48:20;5.97;;;4.35;;
27127;SDS011;14660;49.008;8.390;2022-08-25T14:50:51;4.28;;;3.80;;
27127;SDS011;14660;49.008;8.390;2022-08-25T14:53:19;3.90;;;3.50;;
27127;SDS011;14660;49.008;8.390;2022-08-25T14:55:46;4.97;;;4.47;;
27127;SDS011;14660;49.008;8.390;2022-08-25T14:58:14;4.57;;;3.95;;
27127;SDS011;14660;49.008;8.390;2022-08-25T15:00:42;4.15;;;3.25;;
27127;SDS011;14660;49.008;8.390;2022-08-25T15:03:14;4.72;;;3.92;;
27127;SDS011;14660;49.008;8.390;2022-08-25T15:06:06;4.60;;;4.15;;
27127;SDS011;14660;49.008;8.390;2022-08-25T15:08:33;5.03;;;4.40;;
27127;SDS011;14660;49.008;8.390;2022-08-25T15:11:19;4.50;;;3.92;;
27127;SDS011;14660;49.008;8.390;2022-08-25T15:13:46;4.90;;;3.63;;
27127;SDS011;14660;49.008;8.390;2022-08-25T15:16:21;4.05;;;3.50;;
27127;SDS011;14660;49.008;8.390;2022-08-25T15:18:50;3.70;;;3.25;;
27127;SDS011;14660;49.008;8.390;2022-08-25T15:21:17;4.65;;;3.70;;
27127;SDS011;14660;49.008;8.390;2022-08-25T15:23:44;4.10;;;3.67;;
27127;SDS011;14660;49.008;8.390;2022-08-25T15:26:14;5.28;;;3.78;;
27127;SDS011;14660;49.008;8.390;2022-08-25T15:28:44;4.63;;;2.93;;
27127;SDS011;14660;49.008;8.390;2022-08-25T15:31:17;3.70;;;3.03;;
27127;SDS011;14660;49.008;8.390;2022-08-25T15:33:45;3.97;;;3.10;;
27127;SDS011;14660;49.008;8.390;2022-08-25T15:36:13;5.30;;;3.35;;
27127;SDS011;14660;49.008;8.390;2022-08-25T15:38:42;5.38;;;3.88;;
27127;SDS011;14660;49.008;8.390;2022-08-25T15:41:10;5.30;;;3.40;;
27127;SDS011;14660;49.008;8.390;2022-08-25T15:43:38;3.72;;;3.13;;
27127;SDS011;14660;49.008;8.390;2022-08-25T15:46:05;5.32;;;3.80;;
27127;SDS011;14660;49.008;8.390;2022-08-25T15:48:33;5.28;;;3.60;;
27127;SDS011;14660;49.008;8.390;2022-08-25T15:51:00;5.65;;;3.35;;
27127;SDS011;14660;49.008;8.390;2022-08-25T15:53:30;4.60;;;4.10;;
27127;SDS011;14660;49.008;8.390;2022-08-25T15:55:57;7.63;;;5.35;;
27127;SDS011;14660;49.008;8.390;2022-08-25T15:58:24;6.22;;;4.53;;
27127;SDS011;14660;49.008;8.390;2022-08-25T16:00:51;5.40;;;4.22;;
27127;SDS011;14660;49.008;8.390;2022-08-25T16:03:17;4.03;;;3.55;;
27127;SDS011;14660;49.008;8.390;2022-08-25T16:05:44;4.57;;;3.03;;
27127;SDS011;14660;49.008;8.390;2022-08-25T16:08:11;3.60;;;3.03;;
27127;SDS011;14660;49.008;8.390;2022-08-25T16:10:41;4.53;;;3.20;;
27127;SDS011;14660;49.008;8.390;2022-08-25T16:13:10;6.05;;;3.95;;
27127;SDS011;14660;49.008;8.390;2022-08-25T16:15:37;3.92;;;3.03;;
27127;SDS011;14660;49.008;8.390;2022-08-25T16:18:04;4.03;;;3.63;;
27127;SDS011;14660;49.008;8.390;2022-08-25T16:20:32;3.30;;;2.58;;
27127;SDS011;14660;49.008;8.390;2022-08-25T16:23:00;4.70;;;3.17;;
27127;SDS011;14660;49.008;8.390;2022-08-25T16:25:29;3.58;;;2.58;;
27127;SDS011;14660;49.008;8.390;2022-08-25T16:27:57;3.22;;;2.92;;
27127;SDS011;14660;49.008;8.390;2022-08-25T16:30:23;3.83;;;3.15;;
27127;SDS011;14660;49.008;8.390;2022-08-25T16:32:50;3.50;;;3.20;;
27127;SDS011;14660;49.008;8.390;2022-08-25T16:35:17;4.07;;;3.05;;
27127;SDS011;14660;49.008;8.390;2022-08-25T16:37:44;4.45;;;3.20;;
27127;SDS011;14660;49.008;8.390;2022-08-25T16:40:11;5.65;;;4.35;;
27127;SDS011;14660;49.008;8.390;2022-08-25T16:42:39;4.15;;;3.30;;
27127;SDS011;14660;49.008;8.390;2022-08-25T16:45:06;3.85;;;3.47;;
27127;SDS011;14660;49.008;8.390;2022-08-25T16:47:34;3.60;;;3.30;;
27127;SDS011;14660;49.008;8.390;2022-08-25T16:50:04;3.55;;;2.85;;
27127;SDS011;14660;49.008;8.390;2022-08-25T16:52:34;3.10;;;2.80;;
27127;SDS011;14660;49.008;8.390;2022-08-25T16:55:20;4.63;;;3.30;;
27127;SDS011;14660;49.008;8.390;2022-08-25T16:57:49;3.20;;;2.65;;
27127;SDS011;14660;49.008;8.390;2022-08-25T17:00:21;3.17;;;2.88;;
27127;SDS011;14660;49.008;8.390;2022-08-25T17:02:55;5.60;;;3.75;;
27127;SDS011;14660;49.008;8.390;2022-08-25T17:07:53;3.88;;;3.17;;
27127;SDS011;14660;49.008;8.390;2022-08-25T17:10:38;4.35;;;3.60;;
27127;SDS011;14660;49.008;8.390;2022-08-25T17:13:07;5.07;;;4.10;;
27127;SDS011;14660;49.008;8.390;2022-08-25T17:15:37;6.18;;;4.28;;
27127;SDS011;14660;49.008;8.390;2022-08-25T17:18:05;7.53;;;5.95;;
27127;SDS011;14660;49.008;8.390;2022-08-25T17:20:33;8.55;;;6.20;;
27127;SDS011;14660;49.008;8.390;2022-08-25T17:23:00;6.32;;;5.50;;
27127;SDS011;14660;49.008;8.390;2022-08-25T17:25:27;5.25;;;3.33;;
27127;SDS011;14660;49.008;8.390;2022-08-25T17:27:53;5.93;;;4.78;;
27127;SDS011;14660;49.008;8.390;2022-08-25T17:30:20;5.22;;;4.03;;
27127;SDS011;14660;49.008;8.390;2022-08-25T17:32:47;6.13;;;3.70;;
27127;SDS011;14660;49.008;8.390;2022-08-25T17:35:13;3.67;;;3.33;;
27127;SDS011;14660;49.008;8.390;2022-08-25T17:37:40;4.75;;;3.85;;
27127;SDS011;14660;49.008;8.390;2022-08-25T17:40:07;3.95;;;3.03;;
27127;SDS011;14660;49.008;8.390;2022-08-25T17:42:35;3.72;;;3.05;;
27127;SDS011;14660;49.008;8.390;2022-08-25T17:45:02;4.32;;;3.42;;
27127;SDS011;14660;49.008;8.390;2022-08-25T17:47:29;5.63;;;3.92;;
27127;SDS011;14660;49.008;8.390;2022-08-25T17:49:56;5.97;;;3.40;;
27127;SDS011;14660;49.008;8.390;2022-08-25T17:52:23;5.63;;;3.67;;
27127;SDS011;14660;49.008;8.390;2022-08-25T17:54:50;4.53;;;3.30;;
27127;SDS011;14660;49.008;8.390;2022-08-25T17:57:18;7.03;;;3.38;;
27127;SDS011;14660;49.008;8.390;2022-08-25T17:59:45;6.53;;;3.85;;
27127;SDS011;14660;49.008;8.390;2022-08-25T18:02:11;12.73;;;10.00;;
27127;SDS011;14660;49.008;8.390;2022-08-25T18:04:38;5.82;;;5.20;;
27127;SDS011;14660;49.008;8.390;2022-08-25T18:07:05;7.53;;;5.18;;
27127;SDS011;14660;49.008;8.390;2022-08-25T18:09:32;6.45;;;5.60;;
27127;SDS011;14660;49.008;8.390;2022-08-25T18:11:59;5.60;;;3.60;;
27127;SDS011;14660;49.008;8.390;2022-08-25T18:14:26;7.68;;;3.92;;
27127;SDS011;14660;49.008;8.390;2022-08-25T18:16:53;6.80;;;3.95;;
27127;SDS011;14660;49.008;8.390;2022-08-25T18:19:20;5.03;;;3.83;;
27127;SDS011;14660;49.008;8.390;2022-08-25T18:21:47;4.22;;;3.75;;
27127;SDS011;14660;49.008;8.390;2022-08-25T18:24:13;5.43;;;3.45;;